Time;durP1;ratioP1;P1;durP2;ratioP2;P2;SDS_P1;SDS_P2;PMS_P1;PMS_P2;Temp;Humidity;BMP_temperature;BMP_pressure;BME280_temperature;BME280_humidity;BME280_pressure;Samples;Min_cycle;Max_cycle;Signal;HPM_P1;HPM_P2
2022/11/01 05:03:24;;;;;;;8.93;3.90;;;16.90;80.00;;;;;;5544074;23;20062;-77
2022/11/01 05:05:50;;;;;;;11.73;4.32;;;16.90;79.90;;;;;;4841351;29;20069;-77
2022/11/01 05:08:16;;;;;;;11.43;3.55;;;16.90;79.90;;;;;;4843707;29;20455;-78
2022/11/01 05:10:43;;;;;;;10.02;3.60;;;16.90;79.70;;;;;;4828960;29;20075;-78
2022/11/01 05:13:11;;;;;;;8.45;3.92;;;17.00;79.80;;;;;;4844159;29;20050;-78
2022/11/01 05:15:37;;;;;;;8.35;3.45;;;16.90;79.70;;;;;;4836148;29;20050;-76
2022/11/01 05:18:03;;;;;;;10.32;4.05;;;17.00;79.80;;;;;;4826190;29;20057;-81
2022/11/01 05:20:31;;;;;;;6.78;3.13;;;17.00;79.80;;;;;;4809833;29;20061;-78
2022/11/01 05:22:59;;;;;;;9.88;3.78;;;17.00;79.80;;;;;;4825934;29;20071;-80
2022/11/01 05:25:25;;;;;;;11.88;3.22;;;17.00;79.80;;;;;;4833463;29;20506;-81
2022/11/01 05:27:51;;;;;;;9.85;3.35;;;17.00;79.90;;;;;;4846918;29;20068;-77
2022/11/01 05:30:16;;;;;;;9.20;3.17;;;17.00;80.00;;;;;;4847687;29;20046;-77
2022/11/01 05:32:42;;;;;;;12.63;3.22;;;16.90;79.80;;;;;;4847487;29;20133;-76
2022/11/01 05:35:08;;;;;;;5.78;2.90;;;17.00;79.80;;;;;;4827606;29;20051;-77
2022/11/01 05:37:34;;;;;;;14.88;3.17;;;17.00;79.90;;;;;;4828218;29;20042;-76
2022/11/01 05:40:01;;;;;;;9.02;3.25;;;17.00;79.80;;;;;;4828150;29;20050;-71
2022/11/01 05:42:26;;;;;;;10.07;3.10;;;17.00;79.80;;;;;;4829092;29;20065;-74
2022/11/01 05:44:52;;;;;;;11.07;2.75;;;17.00;79.90;;;;;;4838821;29;20049;-77
2022/11/01 05:47:18;;;;;;;11.77;2.83;;;17.00;79.60;;;;;;4848645;29;20410;-77
2022/11/01 05:49:44;;;;;;;6.80;2.28;;;17.00;79.30;;;;;;4856629;29;20057;-75
2022/11/01 05:52:09;;;;;;;4.88;1.63;;;17.00;79.20;;;;;;4865592;29;20097;-75
2022/11/01 05:54:35;;;;;;;6.63;2.45;;;17.00;79.00;;;;;;4865544;29;20132;-75
2022/11/01 05:57:01;;;;;;;9.88;2.53;;;17.00;79.10;;;;;;4830827;29;20085;-77
2022/11/01 05:59:26;;;;;;;7.40;3.03;;;17.00;79.20;;;;;;4829427;29;20062;-76
2022/11/01 06:01:52;;;;;;;9.50;2.47;;;17.00;79.60;;;;;;4833858;29;20478;-75
2022/11/01 06:04:18;;;;;;;9.50;2.13;;;17.00;79.70;;;;;;4846722;29;20132;-76
2022/11/01 06:06:43;;;;;;;9.88;2.38;;;17.00;79.70;;;;;;4846857;29;20455;-76
2022/11/01 06:09:09;;;;;;;7.13;2.10;;;17.00;79.80;;;;;;4847038;29;20129;-79
2022/11/01 06:11:35;;;;;;;11.77;2.45;;;17.00;79.70;;;;;;4833409;29;20105;-73
2022/11/01 06:14:01;;;;;;;5.18;1.38;;;17.00;79.30;;;;;;4865112;29;20132;-78
2022/11/01 06:16:26;;;;;;;8.00;1.92;;;17.10;78.20;;;;;;4835755;29;20057;-76
2022/11/01 06:18:52;;;;;;;7.82;1.33;;;17.10;76.00;;;;;;4864837;29;20049;-77
2022/11/01 06:21:21;;;;;;;9.63;1.77;;;17.10;74.90;;;;;;4865072;29;20064;-75
2022/11/01 06:23:49;;;;;;;6.25;1.73;;;17.00;74.30;;;;;;4865771;29;20049;-78
2022/11/01 06:26:16;;;;;;;6.82;1.70;;;16.90;74.70;;;;;;4865123;29;20056;-75
2022/11/01 06:28:42;;;;;;;7.35;1.50;;;16.90;75.30;;;;;;4864805;29;20057;-74
2022/11/01 06:31:08;;;;;;;6.15;1.33;;;16.90;75.50;;;;;;4864901;29;20060;-77
2022/11/01 06:33:34;;;;;;;7.57;1.40;;;16.90;75.70;;;;;;4864559;29;20057;-74
2022/11/01 06:36:01;;;;;;;8.00;1.33;;;16.90;76.10;;;;;;4864719;29;20045;-77
2022/11/01 06:38:27;;;;;;;5.35;0.80;;;17.00;76.50;;;;;;4864910;29;20359;-75
2022/11/01 06:40:53;;;;;;;6.47;1.15;;;17.00;76.60;;;;;;4864648;29;20136;-76
2022/11/01 06:43:18;;;;;;;7.60;1.17;;;17.00;76.60;;;;;;4832994;29;20113;-73
2022/11/01 06:45:44;;;;;;;6.88;1.20;;;17.00;76.70;;;;;;4864660;29;20054;-75
2022/11/01 06:48:10;;;;;;;8.50;1.48;;;17.00;76.80;;;;;;4848343;29;20061;-75
2022/11/01 06:50:35;;;;;;;8.75;1.52;;;17.00;76.90;;;;;;4864398;29;20061;-73
2022/11/01 06:53:02;;;;;;;6.57;1.58;;;17.10;76.90;;;;;;4864280;29;20189;-75
2022/11/01 06:55:29;;;;;;;8.20;1.40;;;17.00;76.90;;;;;;4864028;29;20057;-77
2022/11/01 06:57:57;;;;;;;12.98;2.17;;;17.10;77.20;;;;;;4864150;29;20041;-79
2022/11/01 07:00:22;;;;;;;15.88;2.42;;;17.10;77.60;;;;;;4864211;29;20045;-77
2022/11/01 07:02:48;;;;;;;14.35;3.13;;;17.10;78.20;;;;;;4864362;29;20041;-77
2022/11/01 07:05:14;;;;;;;9.00;1.75;;;17.10;78.00;;;;;;4863408;29;20129;-79
2022/11/01 07:07:40;;;;;;;7.30;1.88;;;17.10;78.40;;;;;;4864175;29;20058;-78
2022/11/01 07:10:07;;;;;;;11.63;2.20;;;17.10;78.60;;;;;;4863687;29;20081;-79
2022/11/01 07:12:33;;;;;;;9.75;2.40;;;17.10;78.80;;;;;;4864060;29;20089;-76
2022/11/01 07:14:59;;;;;;;15.43;2.83;;;17.10;79.00;;;;;;4864010;29;20045;-78
2022/11/01 07:17:25;;;;;;;9.82;2.00;;;17.10;79.00;;;;;;4863639;29;20042;-80
2022/11/01 07:19:51;;;;;;;10.73;2.38;;;17.20;79.10;;;;;;4863329;29;20071;-78
2022/11/01 07:22:18;;;;;;;9.35;2.35;;;17.20;79.20;;;;;;4864043;29;20061;-77
2022/11/01 07:24:43;;;;;;;8.30;2.15;;;17.20;79.30;;;;;;4847202;29;20069;-80
2022/11/01 07:27:09;;;;;;;10.88;2.25;;;17.10;79.20;;;;;;4847845;29;20088;-79
2022/11/01 07:29:35;;;;;;;11.23;1.92;;;17.20;79.30;;;;;;4863665;29;20359;-79
2022/11/01 07:32:01;;;;;;;8.13;2.35;;;17.20;79.30;;;;;;4863811;29;20054;-78
2022/11/01 07:34:26;;;;;;;8.88;1.80;;;17.20;79.40;;;;;;4863026;29;20049;-77
2022/11/01 07:36:52;;;;;;;11.98;2.28;;;17.10;79.30;;;;;;4863933;29;20095;-79
2022/11/01 07:39:18;;;;;;;13.38;2.70;;;17.20;79.40;;;;;;4863682;29;20439;-78
2022/11/01 07:41:43;;;;;;;7.75;2.00;;;17.20;79.40;;;;;;4863725;29;20105;-80
2022/11/01 07:44:09;;;;;;;10.23;1.92;;;17.20;79.60;;;;;;4863442;29;20053;-77
2022/11/01 07:46:35;;;;;;;5.65;2.00;;;17.20;78.60;;;;;;4863172;29;20351;-76
2022/11/01 07:49:00;;;;;;;6.60;1.58;;;17.10;78.70;;;;;;4863449;29;20049;-78
2022/11/01 07:51:27;;;;;;;5.75;1.48;;;17.10;79.10;;;;;;4847348;29;20053;-78
2022/11/01 07:53:53;;;;;;;4.13;1.30;;;17.10;79.40;;;;;;4847023;29;20041;-80
2022/11/01 07:56:20;;;;;;;9.35;1.95;;;17.10;79.70;;;;;;4863303;29;20055;-78
2022/11/01 07:58:46;;;;;;;9.85;1.75;;;17.10;79.80;;;;;;4863105;29;20053;-75
2022/11/01 08:01:12;;;;;;;6.55;1.58;;;17.10;79.70;;;;;;4863090;29;20061;-78
2022/11/01 08:03:37;;;;;;;11.25;2.60;;;17.20;80.00;;;;;;4863216;29;20041;-77
2022/11/01 08:06:03;;;;;;;11.82;2.80;;;17.20;78.50;;;;;;4863393;29;20110;-76
2022/11/01 08:08:29;;;;;;;15.98;3.10;;;17.30;72.00;;;;;;4846922;29;20050;-79
2022/11/01 08:10:55;;;;;;;10.95;2.78;;;17.20;70.10;;;;;;4863088;29;20088;-74
2022/11/01 08:13:22;;;;;;;16.02;3.63;;;17.10;67.60;;;;;;4862757;29;20085;-80
2022/11/01 08:15:50;;;;;;;15.80;2.40;;;16.90;67.00;;;;;;4847116;29;20060;-78
2022/11/01 08:18:17;;;;;;;11.65;2.72;;;16.70;66.60;;;;;;4846363;29;20053;-80
2022/11/01 08:20:43;;;;;;;12.00;2.45;;;16.60;68.10;;;;;;4846389;29;20459;-81
2022/11/01 08:23:10;;;;;;;16.77;3.03;;;16.60;69.20;;;;;;4862620;29;20117;-83
2022/11/01 08:25:36;;;;;;;16.30;3.22;;;16.60;70.00;;;;;;4847105;29;20367;-79
2022/11/01 08:28:11;;;;;;;15.90;2.58;;;16.70;70.90;;;;;;4846858;29;20057;-78
2022/11/01 08:30:39;;;;;;;14.98;2.80;;;16.70;71.30;;;;;;4863101;29;20371;-79
2022/11/01 08:33:05;;;;;;;11.93;2.65;;;16.70;71.50;;;;;;4846351;29;20053;-78
2022/11/01 08:35:32;;;;;;;11.02;2.33;;;16.70;71.60;;;;;;4862385;29;20128;-76
2022/11/01 08:37:58;;;;;;;16.77;3.35;;;16.80;71.60;;;;;;4831137;29;20049;-79
2022/11/01 08:40:25;;;;;;;15.77;2.53;;;16.80;71.40;;;;;;4846847;29;20065;-82
2022/11/01 08:42:51;;;;;;;12.60;3.28;;;16.80;71.00;;;;;;4862633;29;20128;-81
2022/11/01 08:45:17;;;;;;;14.02;2.72;;;16.80;70.70;;;;;;4846870;29;20185;-80
2022/11/01 08:47:43;;;;;;;14.85;2.90;;;16.80;70.50;;;;;;4846135;29;20053;-79
2022/11/01 08:50:11;;;;;;;15.73;3.20;;;16.80;70.20;;;;;;4845190;29;20064;-79
2022/11/01 08:52:38;;;;;;;11.85;2.78;;;16.80;69.90;;;;;;4861967;29;20056;-80
2022/11/01 08:55:05;;;;;;;15.23;2.75;;;16.80;69.70;;;;;;4862519;29;20053;-80
2022/11/01 08:57:30;;;;;;;12.30;2.67;;;16.80;69.70;;;;;;4862230;29;20125;-79
2022/11/01 08:59:56;;;;;;;11.10;2.65;;;16.80;69.70;;;;;;4866214;29;20459;-79
2022/11/01 09:02:22;;;;;;;13.15;2.90;;;16.80;69.60;;;;;;4865498;29;20053;-79
2022/11/01 09:04:48;;;;;;;11.75;3.42;;;16.80;69.40;;;;;;4865803;29;20496;-78
2022/11/01 09:07:13;;;;;;;16.48;3.60;;;16.70;69.20;;;;;;4866030;29;20058;-79
2022/11/01 09:09:39;;;;;;;11.75;2.38;;;16.80;69.30;;;;;;4850376;29;20058;-79
2022/11/01 09:12:05;;;;;;;16.17;3.45;;;16.70;69.20;;;;;;4865944;29;20052;-80
2022/11/01 09:14:31;;;;;;;15.20;3.17;;;16.70;69.10;;;;;;4866098;29;20371;-79
2022/11/01 09:16:59;;;;;;;12.52;3.47;;;16.70;69.30;;;;;;4849982;29;20057;-81
2022/11/01 09:19:26;;;;;;;17.50;3.33;;;16.70;69.30;;;;;;4865495;29;20072;-81
2022/11/01 09:21:51;;;;;;;13.88;3.15;;;16.70;69.40;;;;;;4865883;29;20438;-78
2022/11/01 09:24:17;;;;;;;19.33;3.90;;;16.70;69.40;;;;;;4866065;29;20508;-78
2022/11/01 09:26:43;;;;;;;14.75;3.55;;;16.70;69.40;;;;;;4849623;29;20053;-79
2022/11/01 09:29:10;;;;;;;12.55;2.50;;;16.70;69.50;;;;;;4865798;29;20124;-79
2022/11/01 09:31:36;;;;;;;17.52;4.07;;;16.70;69.50;;;;;;4849600;29;20045;-81
2022/11/01 09:34:02;;;;;;;20.55;3.65;;;16.70;69.60;;;;;;4849397;29;20045;-80
2022/11/01 09:36:28;;;;;;;18.80;3.08;;;16.70;69.60;;;;;;4865687;29;20458;-79
2022/11/01 09:38:55;;;;;;;14.88;3.88;;;16.70;69.80;;;;;;4865246;29;20045;-75
2022/11/01 09:41:44;;;;;;;13.68;3.30;;;16.70;69.80;;;;;;4865113;29;20144;-77
2022/11/01 09:44:16;;;;;;;12.23;2.90;;;16.70;69.90;;;;;;4863957;29;20052;-79
2022/11/01 09:46:47;;;;;;;19.50;3.28;;;16.70;69.90;;;;;;4864862;29;20049;-79
2022/11/01 09:49:21;;;;;;;11.85;2.25;;;16.80;69.90;;;;;;4880167;29;20061;-79
2022/11/01 09:51:48;;;;;;;23.05;3.42;;;16.70;69.90;;;;;;4861513;29;20429;-80
2022/11/01 09:54:18;;;;;;;12.93;3.00;;;16.70;69.80;;;;;;4833783;29;20045;-80
2022/11/01 09:56:51;;;;;;;14.23;2.55;;;16.70;70.00;;;;;;4849190;29;20045;-80
2022/11/01 09:59:20;;;;;;;;;;;16.80;71.00;;;;;;4865622;29;20049;-79
2022/11/01 10:05:36;;;;;;;12.53;2.50;;;16.70;71.10;;;;;;4808399;29;20521;-81
2022/11/01 10:08:02;;;;;;;10.98;2.42;;;16.80;71.30;;;;;;4848651;29;20463;-81
2022/11/01 10:10:37;;;;;;;12.60;2.90;;;16.80;71.40;;;;;;4848147;29;20052;-83
2022/11/01 10:13:14;;;;;;;10.13;2.40;;;16.80;71.50;;;;;;4833091;29;20112;-81
2022/11/01 10:16:06;;;;;;;9.65;2.60;;;16.90;71.60;;;;;;4848426;29;20049;-81
2022/11/01 10:18:52;;;;;;;10.55;2.55;;;16.90;71.70;;;;;;4833204;29;20038;-82
2022/11/01 10:21:20;;;;;;;10.77;2.47;;;16.90;71.80;;;;;;4847912;29;20057;-82
2022/11/01 10:23:51;;;;;;;12.30;3.70;;;16.90;72.00;;;;;;4833957;29;20041;-82
2022/11/01 10:26:29;;;;;;;10.27;2.63;;;16.90;72.10;;;;;;4848685;29;20084;-82
2022/11/01 10:29:03;;;;;;;12.73;2.65;;;17.00;72.30;;;;;;4833186;29;20048;-83
2022/11/01 10:31:33;;;;;;;13.35;2.58;;;16.90;72.10;;;;;;4864647;29;20045;-81
2022/11/01 10:34:09;;;;;;;14.35;3.17;;;16.90;71.90;;;;;;4848476;29;20523;-81
2022/11/01 10:36:38;;;;;;;15.70;3.17;;;17.00;72.10;;;;;;4864872;29;20057;-83
2022/11/01 10:39:34;;;;;;;16.05;4.07;;;17.00;72.10;;;;;;4833007;29;20052;-84
2022/11/01 10:42:07;;;;;;;12.82;3.33;;;17.00;72.10;;;;;;4864410;29;20140;-82
2022/11/01 10:44:35;;;;;;;;;;;17.00;72.20;;;;;;4833742;29;20331;-80
2022/11/01 10:47:11;;;;;;;17.27;3.17;;;16.90;72.20;;;;;;4847841;29;19924;-81
2022/11/01 10:49:44;;;;;;;15.23;3.03;;;17.00;72.30;;;;;;4848179;29;20041;-78
2022/11/01 10:52:14;;;;;;;14.10;2.70;;;17.00;72.60;;;;;;4847807;29;20060;-75
2022/11/01 10:54:42;;;;;;;13.98;2.58;;;17.00;72.80;;;;;;4832671;29;20045;-79
2022/11/01 10:57:15;;;;;;;12.65;2.58;;;17.00;72.70;;;;;;4848102;29;20061;-81
2022/11/01 10:59:45;;;;;;;14.68;2.58;;;17.00;72.50;;;;;;4864685;29;20053;-78
2022/11/01 11:02:30;;;;;;;20.38;2.78;;;17.00;72.80;;;;;;4847670;29;20469;-80
2022/11/01 11:04:56;;;;;;;10.32;2.25;;;17.00;72.90;;;;;;4863870;29;20093;-77
2022/11/01 11:07:24;;;;;;;10.65;2.05;;;17.00;73.30;;;;;;4864236;29;20081;-77
2022/11/01 11:09:53;;;;;;;10.68;2.35;;;17.00;73.80;;;;;;4864369;29;20132;-78
2022/11/01 11:12:22;;;;;;;14.32;3.53;;;17.00;74.10;;;;;;4832751;29;20081;-81
2022/11/01 11:15:00;;;;;;;14.98;2.85;;;17.00;74.00;;;;;;4848023;29;20049;-80
2022/11/01 11:17:36;;;;;;;10.38;2.53;;;17.10;74.30;;;;;;4848047;29;20124;-77
2022/11/01 11:20:07;;;;;;;11.80;2.72;;;17.10;74.30;;;;;;4863991;29;20045;-76
2022/11/01 11:22:39;;;;;;;12.68;2.92;;;17.10;73.80;;;;;;4846261;29;20053;-77
2022/11/01 11:25:15;;;;;;;13.30;2.95;;;17.10;73.60;;;;;;4832234;29;20135;-78
2022/11/01 11:27:47;;;;;;;13.80;2.50;;;17.10;72.70;;;;;;4864106;29;20050;-81
2022/11/01 11:30:24;;;;;;;15.95;2.72;;;17.10;72.70;;;;;;4832478;29;20069;-80
2022/11/01 11:32:52;;;;;;;16.33;2.63;;;17.10;72.70;;;;;;4863630;29;20057;-80
2022/11/01 11:35:20;;;;;;;17.20;3.00;;;17.10;72.70;;;;;;4847402;29;20049;-78
2022/11/01 11:38:06;;;;;;;11.82;2.85;;;17.10;72.60;;;;;;4864373;29;20579;-79
2022/11/01 11:40:38;;;;;;;12.18;2.42;;;17.10;72.90;;;;;;4847801;29;20201;-81
2022/11/01 11:43:30;;;;;;;12.27;2.05;;;17.10;73.20;;;;;;4862977;29;20132;-77
2022/11/01 11:46:04;;;;;;;16.05;2.30;;;17.10;73.50;;;;;;4863471;29;20129;-79
2022/11/01 11:48:30;;;;;;;10.88;2.17;;;17.10;73.70;;;;;;4863558;29;20045;-76
2022/11/01 11:51:04;;;;;;;11.15;2.95;;;17.10;73.90;;;;;;4862638;29;20514;-79
2022/11/01 11:53:32;;;;;;;14.68;3.10;;;17.10;74.00;;;;;;4860703;29;20059;-81
2022/11/01 11:56:01;;;;;;;13.02;2.33;;;17.20;72.50;;;;;;4846628;29;20527;-79
2022/11/01 11:58:37;;;;;;;12.23;2.35;;;17.20;70.60;;;;;;4863120;29;20378;-80
2022/11/01 12:01:09;;;;;;;15.45;2.45;;;17.20;70.20;;;;;;4846468;29;20088;-79
2022/11/01 12:03:54;;;;;;;10.65;2.33;;;17.10;70.50;;;;;;4863402;29;20118;-78
2022/11/01 12:06:27;;;;;;;17.88;2.70;;;17.00;71.30;;;;;;4863289;29;20050;-76
2022/11/01 12:08:58;;;;;;;13.60;3.10;;;17.00;71.80;;;;;;4862914;29;20463;-76
2022/11/01 12:11:36;;;;;;;17.02;3.00;;;17.00;72.00;;;;;;4862982;29;20306;-76
2022/11/01 12:14:30;;;;;;;12.65;1.95;;;17.00;72.20;;;;;;4863119;29;20055;-78
2022/11/01 12:16:55;;;;;;;10.10;2.80;;;17.00;72.40;;;;;;4858300;29;20058;-76
2022/11/01 12:19:29;;;;;;;9.27;2.50;;;17.00;72.60;;;;;;4863442;29;20056;-76
2022/11/01 12:22:01;;;;;;;13.65;3.05;;;17.10;72.70;;;;;;4862811;29;20158;-77
2022/11/01 12:24:52;;;;;;;12.20;2.53;;;17.10;71.80;;;;;;4862725;29;20050;-76
2022/11/01 12:27:23;;;;;;;14.40;2.63;;;17.20;70.20;;;;;;4853953;29;20068;-76
2022/11/01 12:30:01;;;;;;;12.77;2.58;;;17.10;70.80;;;;;;4862860;29;20081;-76
2022/11/01 12:32:38;;;;;;;14.80;3.13;;;17.00;71.20;;;;;;4862430;29;20049;-74
2022/11/01 12:35:15;;;;;;;12.68;2.30;;;17.00;71.40;;;;;;4862526;29;20041;-73
2022/11/01 12:38:01;;;;;;;12.13;2.70;;;17.00;71.60;;;;;;4862270;29;20045;-73
2022/11/01 12:40:32;;;;;;;13.93;2.97;;;17.10;71.50;;;;;;4862570;29;20525;-75
2022/11/01 12:43:02;;;;;;;16.83;2.70;;;17.10;71.40;;;;;;4862791;29;20046;-74
2022/11/01 12:45:52;;;;;;;23.90;3.63;;;17.10;71.40;;;;;;4862681;29;20064;-72
2022/11/01 12:48:34;;;;;;;19.17;2.47;;;17.10;71.50;;;;;;4846639;29;20053;-73
2022/11/01 12:51:22;;;;;;;9.50;2.00;;;17.10;70.80;;;;;;4862691;29;20058;-73
2022/11/01 12:54:04;;;;;;;12.40;2.75;;;17.10;70.40;;;;;;4862459;29;20118;-72
2022/11/01 12:56:31;;;;;;;13.20;2.67;;;17.10;70.30;;;;;;4862362;29;20194;-73
2022/11/01 12:58:57;;;;;;;11.00;1.95;;;17.00;70.80;;;;;;4845941;29;20064;-72
2022/11/01 13:01:39;;;;;;;10.25;2.30;;;17.00;71.10;;;;;;4862486;29;20053;-74
2022/11/01 13:04:13;;;;;;;9.30;2.40;;;17.00;71.40;;;;;;4861877;29;20056;-74
2022/11/01 13:06:47;;;;;;;15.82;2.17;;;17.10;71.50;;;;;;4862429;29;20060;-73
2022/11/01 13:09:33;;;;;;;8.63;1.77;;;17.10;71.70;;;;;;4862407;29;20056;-76
2022/11/01 13:12:20;;;;;;;10.48;2.10;;;17.10;71.90;;;;;;4862906;29;20068;-73
2022/11/01 13:15:03;;;;;;;7.68;2.25;;;17.10;72.10;;;;;;4846039;29;20068;-74
2022/11/01 13:17:43;;;;;;;8.38;2.03;;;17.10;72.30;;;;;;4862390;29;20469;-74
2022/11/01 13:20:49;;;;;;;10.27;1.88;;;17.20;72.50;;;;;;4846423;29;20423;-75
2022/11/01 13:23:37;;;;;;;7.50;1.77;;;17.20;72.60;;;;;;4862679;29;20134;-74
2022/11/01 13:26:24;;;;;;;12.32;2.20;;;17.20;72.80;;;;;;4862185;29;20053;-74
2022/11/01 13:29:18;;;;;;;6.43;1.63;;;17.20;72.70;;;;;;4862876;29;20045;-74
2022/11/01 13:32:17;;;;;;;7.97;1.48;;;17.20;72.90;;;;;;4861815;29;20487;-74
2022/11/01 13:35:11;;;;;;;7.97;1.67;;;17.20;73.00;;;;;;4861905;29;20050;-73
2022/11/01 13:38:02;;;;;;;8.73;1.98;;;17.20;73.10;;;;;;4862399;29;20459;-75
2022/11/01 13:40:42;;;;;;;8.63;1.58;;;17.20;73.20;;;;;;4862435;29;20063;-74
2022/11/01 13:43:08;;;;;;;5.95;1.70;;;17.20;73.30;;;;;;4862213;29;20046;-74
2022/11/01 13:46:05;;;;;;;8.05;2.28;;;17.20;73.40;;;;;;4862884;29;20089;-74
2022/11/01 13:48:52;;;;;;;8.57;1.48;;;17.20;73.50;;;;;;4865949;29;20477;-73
2022/11/01 13:51:36;;;;;;;7.90;1.63;;;17.20;73.50;;;;;;4865582;29;20060;-75
2022/11/01 13:54:20;;;;;;;8.68;2.13;;;17.20;73.60;;;;;;4865350;29;20060;-74
2022/11/01 13:56:56;;;;;;;5.55;1.60;;;17.20;73.60;;;;;;4865792;29;20049;-75
2022/11/01 13:59:52;;;;;;;8.55;2.15;;;17.20;73.70;;;;;;4865614;29;20060;-74
2022/11/01 14:02:27;;;;;;;4.85;1.20;;;17.20;73.70;;;;;;4865461;29;20132;-73
2022/11/01 14:05:11;;;;;;;4.90;1.35;;;17.20;73.80;;;;;;4865260;29;20144;-73
2022/11/01 14:07:44;;;;;;;6.97;1.95;;;17.20;73.80;;;;;;4866114;29;20068;-74
2022/11/01 14:10:16;;;;;;;7.65;1.73;;;17.20;73.90;;;;;;4865359;29;20061;-74
2022/11/01 14:12:55;;;;;;;3.88;1.20;;;17.20;73.90;;;;;;4865053;29;20045;-73
2022/11/01 14:15:21;;;;;;;6.85;1.67;;;17.20;73.90;;;;;;4864890;29;20478;-74
2022/11/01 14:17:56;;;;;;;7.25;1.80;;;17.20;74.00;;;;;;4865214;29;20046;-74
2022/11/01 14:20:24;;;;;;;5.20;1.35;;;17.30;74.00;;;;;;4865645;29;20050;-73
2022/11/01 14:22:51;;;;;;;9.93;2.08;;;17.30;74.00;;;;;;4864714;29;20057;-73
2022/11/01 14:25:17;;;;;;;3.85;1.10;;;17.20;74.00;;;;;;4865276;29;20057;-75
2022/11/01 14:27:50;;;;;;;6.35;1.40;;;17.30;74.00;;;;;;4865511;29;20050;-73
2022/11/01 14:30:19;;;;;;;7.20;2.00;;;17.30;74.00;;;;;;4864999;29;20049;-74
2022/11/01 14:32:56;;;;;;;7.65;1.85;;;17.30;73.90;;;;;;4864736;29;20049;-73
2022/11/01 14:35:35;;;;;;;4.50;1.15;;;17.30;73.90;;;;;;4863363;29;20129;-74
2022/11/01 14:38:12;;;;;;;5.68;0.80;;;17.30;73.90;;;;;;4848430;29;20117;-74
2022/11/01 14:40:51;;;;;;;8.43;1.23;;;17.30;73.80;;;;;;4867736;29;20386;-76
2022/11/01 14:43:19;;;;;;;9.60;1.58;;;17.40;73.80;;;;;;4864398;29;20049;-74
2022/11/01 14:45:51;;;;;;;12.35;1.50;;;17.30;73.70;;;;;;4864775;29;20060;-76
2022/11/01 14:48:20;;;;;;;8.02;1.88;;;17.30;73.70;;;;;;4864259;29;20154;-76
2022/11/01 14:51:08;;;;;;;8.23;1.60;;;17.30;73.90;;;;;;4864016;29;20415;-75
2022/11/01 14:53:36;;;;;;;6.38;1.60;;;17.30;74.00;;;;;;4863958;29;20049;-74
2022/11/01 14:56:18;;;;;;;7.38;1.60;;;17.30;74.10;;;;;;4864102;29;20122;-76
2022/11/01 14:58:44;;;;;;;8.20;2.00;;;17.30;74.40;;;;;;4848631;29;20056;-73
2022/11/01 15:01:24;;;;;;;5.60;2.20;;;17.30;74.50;;;;;;4864691;29;20136;-76
2022/11/01 15:03:57;;;;;;;8.10;2.20;;;17.30;74.80;;;;;;4864003;29;20386;-73
2022/11/01 15:06:26;;;;;;;12.80;2.70;;;17.30;75.20;;;;;;4863232;29;20050;-75
2022/11/01 15:08:59;;;;;;;9.85;3.25;;;17.30;75.60;;;;;;4864145;29;20050;-75
2022/11/01 15:11:31;;;;;;;8.57;2.60;;;17.30;76.20;;;;;;4864373;29;20049;-77
2022/11/01 15:13:59;;;;;;;13.75;2.92;;;17.30;76.20;;;;;;4863747;29;20134;-73
2022/11/01 15:16:25;;;;;;;10.73;1.98;;;17.30;76.30;;;;;;4863871;29;20061;-77
2022/11/01 15:18:59;;;;;;;7.80;1.95;;;17.30;76.50;;;;;;4863428;29;20052;-74
2022/11/01 15:21:26;;;;;;;11.23;2.20;;;17.30;76.50;;;;;;4861005;29;20049;-76
2022/11/01 15:23:54;;;;;;;8.63;2.03;;;17.30;76.60;;;;;;4860923;29;20050;-76
2022/11/01 15:26:24;;;;;;;11.40;2.88;;;17.30;76.80;;;;;;4863175;29;20148;-78
2022/11/01 15:28:56;;;;;;;7.72;2.08;;;17.40;77.40;;;;;;4846497;29;20137;-81
2022/11/01 15:31:23;;;;;;;17.73;2.83;;;17.30;77.20;;;;;;4863740;29;20140;-78
2022/11/01 15:34:00;;;;;;;8.30;1.42;;;17.30;77.00;;;;;;4862459;29;20543;-77
2022/11/01 15:36:36;;;;;;;7.13;1.63;;;17.40;77.30;;;;;;4863234;29;20049;-78
2022/11/01 15:39:20;;;;;;;16.17;2.05;;;17.30;77.20;;;;;;4863244;29;20581;-76
2022/11/01 15:41:49;;;;;;;16.67;1.70;;;17.30;76.50;;;;;;4860769;29;20041;-79
2022/11/01 15:44:26;;;;;;;11.23;1.50;;;17.40;73.60;;;;;;4861436;29;20121;-84
2022/11/01 15:46:57;;;;;;;10.23;1.40;;;17.40;71.90;;;;;;4831777;29;20106;-82
2022/11/01 15:49:31;;;;;;;13.18;2.33;;;17.40;70.80;;;;;;4831824;29;20130;-80
2022/11/01 15:52:12;;;;;;;13.18;1.73;;;17.30;69.60;;;;;;4847029;29;20355;-78
2022/11/01 15:54:50;;;;;;;11.13;1.90;;;17.20;69.40;;;;;;4863439;29;20041;-78
2022/11/01 15:57:28;;;;;;;7.75;1.65;;;17.20;70.30;;;;;;4846894;29;20045;-80
2022/11/01 16:00:07;;;;;;;11.75;2.17;;;17.20;71.20;;;;;;4863652;29;20063;-81
2022/11/01 16:02:42;;;;;;;13.77;1.85;;;17.20;71.90;;;;;;4862799;29;20061;-79
2022/11/01 16:05:11;;;;;;;11.45;1.65;;;17.20;72.50;;;;;;4863158;29;20060;-78
2022/11/01 16:07:37;;;;;;;12.05;2.42;;;17.20;72.90;;;;;;4862989;29;20110;-78
2022/11/01 16:10:07;;;;;;;9.27;1.75;;;17.20;73.20;;;;;;4862909;29;20049;-78
2022/11/01 16:12:37;;;;;;;11.90;1.95;;;17.20;73.50;;;;;;4846086;29;20061;-77
2022/11/01 16:15:27;;;;;;;15.40;2.70;;;17.20;73.90;;;;;;4862689;29;20048;-79
2022/11/01 16:17:53;;;;;;;13.35;2.08;;;17.30;74.30;;;;;;4846657;29;20068;-77
2022/11/01 16:20:35;;;;;;;11.93;1.67;;;17.20;74.50;;;;;;4863216;29;20049;-77
2022/11/01 16:23:09;;;;;;;14.40;1.73;;;17.30;74.80;;;;;;4857508;29;20045;-76
2022/11/01 16:25:37;;;;;;;15.10;1.80;;;17.30;74.90;;;;;;4862532;29;20495;-78
2022/11/01 16:28:25;;;;;;;18.08;2.10;;;17.30;75.20;;;;;;4863247;29;20053;-78
2022/11/01 16:30:53;;;;;;;9.82;1.60;;;17.30;75.40;;;;;;4846134;29;20084;-76
2022/11/01 16:33:24;;;;;;;6.05;1.40;;;17.30;73.50;;;;;;4862437;29;20045;-76
2022/11/01 16:35:51;;;;;;;12.23;1.85;;;17.30;71.20;;;;;;4862396;29;20077;-76
2022/11/01 18:02:50;;;;;;;6.03;1.40;;;17.40;73.20;;;;;;5154721;23;20097;-73
2022/11/01 18:05:15;;;;;;;6.00;1.13;;;17.40;71.80;;;;;;4865084;29;20069;-72
2022/11/01 18:07:47;;;;;;;6.32;1.88;;;17.30;70.20;;;;;;4849842;29;20419;-73
2022/11/01 18:10:39;;;;;;;6.00;1.52;;;17.20;68.30;;;;;;4865572;29;20045;-76
2022/11/01 18:13:20;;;;;;;6.32;1.35;;;17.10;68.90;;;;;;4865476;29;20060;-75
2022/11/01 18:16:06;;;;;;;10.32;2.03;;;17.00;68.80;;;;;;4833491;29;20144;-76
2022/11/01 18:18:41;;;;;;;6.97;1.85;;;17.00;68.90;;;;;;4864248;29;20045;-76
2022/11/01 18:21:13;;;;;;;6.95;1.52;;;17.00;68.30;;;;;;4864759;29;20057;-75
2022/11/01 18:23:42;;;;;;;9.68;1.98;;;17.00;67.70;;;;;;4864836;29;20046;-76
2022/11/01 18:26:17;;;;;;;7.32;2.05;;;16.90;67.80;;;;;;4863654;29;20455;-76
2022/11/01 18:28:43;;;;;;;5.80;1.45;;;16.90;68.20;;;;;;4864712;29;20079;-78
2022/11/01 18:31:26;;;;;;;6.25;1.38;;;16.80;68.50;;;;;;4863399;29;20521;-76
2022/11/01 18:34:00;;;;;;;6.07;1.08;;;16.90;68.50;;;;;;4864511;29;20122;-76
2022/11/01 18:36:38;;;;;;;7.60;1.88;;;16.90;68.50;;;;;;4864646;29;20046;-78
2022/11/01 18:39:12;;;;;;;10.35;1.85;;;16.90;68.60;;;;;;4864424;29;20037;-78
2022/11/01 18:41:38;;;;;;;8.40;2.47;;;16.90;68.50;;;;;;4864620;29;20050;-77
2022/11/01 18:44:10;;;;;;;10.13;2.30;;;16.90;68.50;;;;;;4865052;29;20362;-78
2022/11/01 18:47:03;;;;;;;6.45;2.03;;;16.90;68.40;;;;;;4844972;29;20057;-77
2022/11/01 18:49:29;;;;;;;6.18;1.20;;;16.90;68.40;;;;;;4849999;29;20053;-77
2022/11/01 18:51:56;;;;;;;6.43;1.92;;;16.90;68.50;;;;;;4863877;29;20045;-78
2022/11/01 18:54:31;;;;;;;9.27;2.03;;;16.90;68.30;;;;;;4863732;29;20049;-77
2022/11/01 18:57:09;;;;;;;6.65;1.20;;;16.90;68.10;;;;;;4863823;29;20105;-77
2022/11/01 18:59:39;;;;;;;8.13;1.75;;;16.90;68.00;;;;;;4862954;29;20059;-76
2022/11/01 19:02:14;;;;;;;5.95;1.42;;;16.80;68.00;;;;;;4861510;29;20099;-77
2022/11/01 19:04:41;;;;;;;8.52;1.48;;;16.90;68.40;;;;;;4863374;29;20459;-77
2022/11/01 19:07:15;;;;;;;5.15;1.27;;;16.90;68.90;;;;;;4862100;29;20427;-79
2022/11/01 19:10:01;;;;;;;8.30;2.22;;;16.90;69.30;;;;;;4862580;29;20045;-81
2022/11/01 19:12:43;;;;;;;5.78;1.30;;;16.90;69.60;;;;;;4861423;29;20049;-80
2022/11/01 19:15:26;;;;;;;7.13;1.40;;;16.90;69.80;;;;;;4861443;29;20049;-80
2022/11/01 19:18:19;;;;;;;6.32;1.73;;;16.90;70.00;;;;;;4863728;29;20466;-80
2022/11/01 19:20:59;;;;;;;7.70;2.03;;;17.00;70.20;;;;;;4846694;29;20049;-79
2022/11/01 19:23:42;;;;;;;6.47;1.38;;;17.00;70.30;;;;;;4863294;29;20386;-80
2022/11/01 19:26:31;;;;;;;8.40;1.67;;;17.00;70.40;;;;;;4852827;29;20074;-80
2022/11/01 19:28:59;;;;;;;5.45;1.73;;;17.00;70.50;;;;;;4865047;29;20162;-80
2022/11/01 19:31:28;;;;;;;4.63;1.10;;;17.00;70.70;;;;;;4866058;29;20064;-77
2022/11/01 19:34:01;;;;;;;6.95;1.15;;;17.10;70.80;;;;;;4864033;29;20068;-77
2022/11/01 19:36:43;;;;;;;4.20;0.80;;;17.10;71.00;;;;;;4863430;29;20041;-77
2022/11/01 19:39:22;;;;;;;3.95;0.75;;;17.10;71.00;;;;;;4845552;29;20089;-77